Time;durP1;ratioP1;P1;durP2;ratioP2;P2;SDS_P1;SDS_P2;PMS_P1;PMS_P2;Temp;Humidity;BMP_temperature;BMP_pressure;BME280_temperature;BME280_humidity;BME280_pressure;Samples;Min_cycle;Max_cycle;Signal;HPM_P1;HPM_P2
2023/10/03 00:00:54;;;;;;;28.88;12.80;;;;;;;20.97;63.13;99499.16;5062697;28;20713;-80
2023/10/03 00:03:20;;;;;;;28.40;12.55;;;;;;;21.05;62.94;99499.41;5061358;28;20036;-81
2023/10/03 00:05:46;;;;;;;26.00;12.43;;;;;;;21.09;62.96;99490.06;5062424;28;20032;-81
2023/10/03 00:08:13;;;;;;;29.65;11.90;;;;;;;21.03;62.79;99488.66;5062886;28;20333;-81
2023/10/03 00:10:39;;;;;;;28.17;11.65;;;;;;;21.02;62.99;99489.81;5062702;28;20275;-81
2023/10/03 00:13:07;;;;;;;30.90;13.40;;;;;;;20.83;63.28;99485.56;5062486;28;20530;-80
2023/10/03 00:15:33;;;;;;;31.35;14.32;;;;;;;20.72;63.58;99484.41;5064375;28;20028;-81
2023/10/03 00:17:59;;;;;;;29.42;13.23;;;;;;;20.77;63.46;99478.63;5065617;28;20042;-81
2023/10/03 00:20:24;;;;;;;27.38;12.20;;;;;;;20.82;63.39;99477.63;5065422;28;20044;-80
2023/10/03 00:22:51;;;;;;;24.07;13.67;;;;;;;20.81;63.65;99467.69;5065594;28;20064;-80
2023/10/03 00:25:24;;;;;;;29.95;12.25;;;;;;;20.80;63.50;99466.06;5065777;28;20301;-80
2023/10/03 00:28:01;;;;;;;26.25;12.20;;;;;;;20.82;63.33;99459.03;5066447;28;20151;-80
2023/10/03 00:30:28;;;;;;;28.67;12.85;;;;;;;20.76;64.03;99454.88;5066387;28;20709;-80
2023/10/03 00:32:58;;;;;;;27.65;11.95;;;;;;;20.94;63.57;99438.06;5065266;28;20039;-80
2023/10/03 00:35:26;;;;;;;31.08;13.18;;;;;;;20.93;63.46;99442.00;5066237;28;20029;-80
2023/10/03 00:37:53;;;;;;;30.58;13.90;;;;;;;20.81;63.58;99443.56;5066836;28;20436;-80
2023/10/03 00:42:49;;;;;;;22.58;11.93;;;;;;;20.95;63.20;99429.38;5065743;28;20054;-80
2023/10/03 00:45:48;;;;;;;28.85;12.57;;;;;;;20.85;63.25;99425.09;5065499;28;20520;-81
2023/10/03 00:48:07;;;;;;;26.58;12.60;;;;;;;20.88;63.03;99429.97;5063781;28;20062;-79
2023/10/03 00:50:34;;;;;;;27.45;11.88;;;;;;;20.98;63.02;99422.41;5066103;28;20041;-79
2023/10/03 00:53:05;;;;;;;27.85;12.57;;;;;;;20.81;63.35;99426.94;5065243;28;20051;-79
2023/10/03 00:55:33;;;;;;;26.73;12.30;;;;;;;20.94;62.91;99426.97;5065658;28;20474;-79
2023/10/03 01:00:28;;;;;;;29.92;13.25;;;;;;;20.99;62.81;99424.81;5065231;28;20073;-79
2023/10/03 01:02:53;;;;;;;31.00;13.32;;;;;;;20.93;63.01;99425.38;5064472;28;20032;-80
2023/10/03 01:05:19;;;;;;;113.27;21.07;;;;;;;20.88;62.96;99416.13;5065335;28;20116;-79
2023/10/03 01:07:46;;;;;;;27.43;12.43;;;;;;;20.84;63.00;99411.59;5065652;28;20253;-79
2023/10/03 01:10:17;;;;;;;29.52;12.93;;;;;;;20.78;63.12;99408.25;5065540;28;20352;-79
2023/10/03 01:12:45;;;;;;;30.55;12.40;;;;;;;21.05;62.68;99400.44;5065109;28;20064;-80
2023/10/03 01:15:13;;;;;;;23.50;11.48;;;;;;;21.08;62.54;99405.31;5065569;28;20028;-79
2023/10/03 01:17:39;;;;;;;26.42;12.77;;;;;;;21.17;62.41;99396.09;5065862;28;20044;-79
2023/10/03 01:20:24;;;;;;;23.70;12.45;;;;;;;21.02;62.94;99395.63;5065722;28;20028;-79
2023/10/03 01:22:52;;;;;;;25.77;11.88;;;;;;;;;;5065300;28;20110;-78
2023/10/03 01:25:17;;;;;;;28.88;11.63;;;;;;;21.02;62.83;99389.25;5065462;28;20925;-78
2023/10/03 01:27:42;;;;;;;25.98;12.50;;;;;;;21.06;62.80;99381.88;5064927;28;20111;-79
2023/10/03 01:30:08;;;;;;;32.05;12.20;;;;;;;21.22;62.29;99377.25;5065370;28;20032;-80
2023/10/03 01:32:56;;;;;;;29.67;13.57;;;;;;;21.02;62.21;99367.91;5064784;28;20358;-79
2023/10/03 01:35:22;;;;;;;26.15;11.85;;;;;;;20.96;63.05;99377.56;5065649;28;20028;-79
2023/10/03 01:37:49;;;;;;;24.80;11.40;;;;;;;20.85;62.92;99361.41;5064753;28;20166;-79
2023/10/03 01:40:16;;;;;;;26.92;11.35;;;;;;;21.11;62.39;99354.72;5065381;28;20036;-79
2023/10/03 01:42:45;;;;;;;26.90;12.20;;;;;;;20.88;63.36;99348.81;5065190;28;20494;-80
2023/10/03 01:45:17;;;;;;;22.65;10.70;;;;;;;21.03;62.40;99347.34;5065054;28;20044;-80
2023/10/03 01:47:45;;;;;;;29.10;11.07;;;;;;;21.03;62.63;99341.81;5064757;28;20409;-80
2023/10/03 01:50:12;;;;;;;27.63;13.52;;;;;;;21.10;62.36;99338.47;5065064;28;20738;-78
2023/10/03 01:52:39;;;;;;;24.52;10.27;;;;;;;21.08;62.13;99330.50;5064188;28;20035;-80
2023/10/03 01:55:05;;;;;;;28.27;13.07;;;;;;;21.04;62.52;99334.31;5064648;28;20114;-79
2023/10/03 01:57:33;;;;;;;31.15;11.85;;;;;;;21.03;62.65;99322.41;5064663;28;20497;-79
2023/10/03 01:59:59;;;;;;;31.10;13.20;;;;;;;21.06;62.36;99324.50;5065141;28;20036;-82
2023/10/03 02:02:24;;;;;;;27.23;10.77;;;;;;;21.11;62.18;99302.09;5064763;28;20033;-82
2023/10/03 02:04:52;;;;;;;30.10;12.52;;;;;;;21.02;62.49;99303.38;5064887;28;20044;-82
2023/10/03 02:07:18;;;;;;;27.88;12.75;;;;;;;21.06;62.36;99299.56;5064729;28;20072;-83
2023/10/03 02:09:43;;;;;;;30.42;11.50;;;;;;;21.05;62.40;99289.63;5064732;28;20063;-81
2023/10/03 02:12:10;;;;;;;30.00;11.38;;;;;;;21.06;61.94;99285.72;5064189;28;20037;-81
2023/10/03 02:14:39;;;;;;;31.95;12.93;;;;;;;21.08;61.88;99272.31;5064212;28;20095;-81
2023/10/03 02:17:05;;;;;;;26.45;12.77;;;;;;;21.17;61.67;99285.25;5063681;28;20032;-83
2023/10/03 02:19:31;;;;;;;24.67;12.48;;;;;;;21.05;61.83;99264.69;5064787;28;20487;-81
2023/10/03 02:21:59;;;;;;;25.55;14.65;;;;;;;21.05;62.08;99245.28;5064291;28;20068;-82
2023/10/03 02:24:25;;;;;;;36.60;16.67;;;;;;;21.11;61.48;99227.28;5064726;28;20044;-82
2023/10/03 02:26:51;;;;;;;32.67;15.35;;;;;;;21.23;61.10;99248.59;5063985;28;20025;-81
2023/10/03 02:29:16;;;;;;;33.95;16.08;;;;;;;21.30;60.78;99234.16;5063978;28;20432;-81
2023/10/03 02:31:43;;;;;;;33.20;14.93;;;;;;;21.33;60.73;99227.94;5064085;28;20044;-81
2023/10/03 02:34:08;;;;;;;31.90;14.55;;;;;;;21.33;60.66;99222.38;5063271;28;20166;-81
2023/10/03 02:36:34;;;;;;;29.00;12.35;;;;;;;21.20;61.11;99223.56;5064296;28;20174;-81
2023/10/03 02:39:00;;;;;;;30.98;11.77;;;;;;;21.21;61.07;99219.66;5063408;28;20043;-81
2023/10/03 02:41:26;;;;;;;29.60;12.63;;;;;;;21.26;61.37;99216.63;5064546;28;20466;-81
2023/10/03 02:43:51;;;;;;;27.13;12.23;;;;;;;21.27;60.91;99215.47;5063482;28;20120;-81
2023/10/03 02:46:17;;;;;;;23.35;11.02;;;;;;;21.16;61.36;99212.38;5064585;28;20052;-82
2023/10/03 02:48:43;;;;;;;28.33;12.07;;;;;;;21.21;61.10;99208.56;5063286;28;20051;-81
2023/10/03 02:51:10;;;;;;;22.05;10.48;;;;;;;21.18;61.04;99212.84;5067064;28;20032;-80
2023/10/03 02:53:35;;;;;;;27.88;10.88;;;;;;;21.08;61.09;99200.28;5071565;28;20082;-80
2023/10/03 02:56:03;;;;;;;24.45;10.38;;;;;;;21.18;61.07;99206.47;5072721;28;20060;-80
2023/10/03 02:58:29;;;;;;;26.65;12.00;;;;;;;21.13;61.28;99190.09;5072834;28;20024;-80
2023/10/03 03:00:55;;;;;;;25.95;11.18;;;;;;;21.10;61.60;99191.59;5072128;28;20045;-81
2023/10/03 03:03:23;;;;;;;25.33;11.35;;;;;;;21.20;61.03;99182.81;5072120;28;20123;-81
2023/10/03 03:05:49;;;;;;;24.05;11.07;;;;;;;21.08;61.70;99183.66;5074231;28;20032;-81
2023/10/03 03:10:57;;;;;;;24.83;10.40;;;;;;;21.25;60.95;99176.22;5073707;28;20038;-80
2023/10/03 03:13:28;;;;;;;23.38;10.55;;;;;;;21.17;60.92;99177.16;5070443;28;20024;-80
2023/10/03 03:16:00;;;;;;;22.15;9.13;;;;;;;21.24;60.81;99177.34;5068293;28;20020;-81
2023/10/03 03:18:31;;;;;;;24.08;10.38;;;;;;;21.01;61.27;99172.38;5071377;28;20020;-81
2023/10/03 03:20:58;;;;;;;29.55;11.35;;;;;;;20.99;61.60;99174.69;5071806;28;20036;-81
2023/10/03 03:23:42;;;;;;;24.88;11.82;;;;;;;21.15;61.06;99188.59;5071722;28;20028;-80
2023/10/03 03:26:17;;;;;;;19.85;9.25;;;;;;;21.09;61.29;99179.72;5071738;28;20486;-80
2023/10/03 03:28:44;;;;;;;32.05;13.02;;;;;;;21.10;61.68;99178.56;5072078;28;20017;-80
2023/10/03 03:33:45;;;;;;;21.65;9.93;;;;;;;21.11;61.40;99182.16;5071461;28;20047;-80
2023/10/03 03:36:17;;;;;;;29.33;11.23;;;;;;;21.08;61.44;99180.88;5068051;28;20678;-80
2023/10/03 03:38:43;;;;;;;27.00;10.75;;;;;;;20.98;61.93;99184.94;5071312;28;20033;-80
2023/10/03 03:41:08;;;;;;;22.67;10.38;;;;;;;21.16;61.36;99175.53;5072080;28;20362;-81
2023/10/03 03:43:33;;;;;;;25.70;11.17;;;;;;;21.04;61.59;99179.16;5074277;28;20043;-80
2023/10/03 03:45:59;;;;;;;26.67;12.53;;;;;;;21.05;61.75;99178.78;5073029;28;20269;-80
2023/10/03 03:48:24;;;;;;;22.77;10.05;;;;;;;21.09;61.52;99163.09;5071375;28;21434;-81
2023/10/03 03:50:50;;;;;;;20.52;10.48;;;;;;;21.17;61.26;99171.63;5071100;28;20500;-80
2023/10/03 03:53:16;;;;;;;24.25;11.07;;;;;;;21.15;61.48;99182.25;5069992;28;20032;-80
2023/10/03 03:55:42;;;;;;;36.97;10.80;;;;;;;21.08;61.45;99178.09;5070798;28;20747;-81
2023/10/03 03:58:11;;;;;;;25.23;11.50;;;;;;;21.06;61.24;99174.88;5072019;28;20029;-80
2023/10/03 04:00:38;;;;;;;23.45;10.55;;;;;;;21.10;61.50;99169.44;5068543;28;20726;-80
2023/10/03 04:03:11;;;;;;;24.38;10.02;;;;;;;21.24;61.15;99182.91;5071838;28;20036;-81
2023/10/03 04:05:37;;;;;;;21.23;8.60;;;;;;;21.15;61.10;99190.56;5071367;28;20082;-80
2023/10/03 04:08:04;;;;;;;20.92;8.43;;;;;;;21.27;60.76;99187.75;5071433;28;20257;-81
2023/10/03 04:10:30;;;;;;;22.33;9.50;;;;;;;21.22;60.95;99199.06;5072031;28;20029;-80
2023/10/03 04:12:56;;;;;;;22.58;9.98;;;;;;;21.05;61.24;99203.72;5070829;28;20038;-80
2023/10/03 04:15:21;;;;;;;24.60;9.30;;;;;;;21.19;60.97;99199.78;5071014;28;20031;-80
2023/10/03 04:17:48;;;;;;;22.30;10.05;;;;;;;21.18;61.07;99201.75;5071953;28;20046;-81
2023/10/03 04:22:42;;;;;;;26.55;10.68;;;;;;;21.18;60.67;99203.69;5071638;28;20531;-81
2023/10/03 04:25:17;;;;;;;18.57;9.07;;;;;;;21.15;61.09;99212.72;5073127;28;20032;-80
2023/10/03 04:27:43;;;;;;;24.48;10.13;;;;;;;21.34;60.71;99212.91;5072012;28;20253;-81
2023/10/03 04:30:09;;;;;;;22.55;9.43;;;;;;;21.15;61.23;99205.22;5071577;28;20119;-81
2023/10/03 04:32:34;;;;;;;21.70;10.63;;;;;;;21.29;61.01;99215.94;5070493;28;20112;-81
2023/10/03 04:35:00;;;;;;;22.23;10.98;;;;;;;21.22;60.80;99210.97;5069513;28;20108;-80
2023/10/03 04:37:25;;;;;;;20.00;9.07;;;;;;;21.34;60.85;99212.91;5065781;28;20048;-81
2023/10/03 04:39:51;;;;;;;22.58;9.55;;;;;;;21.34;60.92;99218.44;5063292;28;20063;-82
2023/10/03 04:42:16;;;;;;;23.08;8.98;;;;;;;21.37;60.62;99208.63;5070821;28;20033;-80
2023/10/03 04:44:41;;;;;;;18.92;8.57;;;;;;;21.55;60.28;99219.41;5070725;28;20024;-80
2023/10/03 04:47:11;;;;;;;18.73;8.53;;;;;;;21.36;60.79;99215.31;5072990;28;20048;-81
2023/10/03 04:49:37;;;;;;;15.68;7.50;;;;;;;21.42;60.67;99213.09;5072132;28;20027;-80
2023/10/03 04:52:03;;;;;;;21.08;9.32;;;;;;;21.32;61.16;99219.94;5072719;28;20036;-81
2023/10/03 04:54:29;;;;;;;24.88;10.90;;;;;;;21.41;60.94;99215.06;5069409;28;20029;-81
2023/10/03 04:56:54;;;;;;;17.83;7.87;;;;;;;21.54;60.70;99210.28;5070719;28;20024;-81
2023/10/03 04:59:21;;;;;;;21.58;9.93;;;;;;;21.40;61.09;99212.66;5070728;28;20025;-81
2023/10/03 05:01:46;;;;;;;21.35;9.18;;;;;;;21.45;61.09;99223.50;5073620;28;20032;-80
2023/10/03 05:04:12;;;;;;;21.85;9.32;;;;;;;21.40;61.30;99215.44;5074480;28;20111;-80
2023/10/03 05:06:37;;;;;;;15.75;8.60;;;;;;;21.51;61.13;99215.72;5074161;28;20044;-81
2023/10/03 05:09:04;;;;;;;20.45;9.85;;;;;;;21.41;61.16;99231.72;5076653;28;20032;-81
2023/10/03 05:11:30;;;;;;;22.95;9.20;;;;;;;21.60;60.99;99235.00;5075377;28;20103;-81
2023/10/03 05:13:55;;;;;;;19.13;9.35;;;;;;;21.52;61.20;99240.31;5076407;28;20103;-80
2023/10/03 05:16:20;;;;;;;22.27;8.25;;;;;;;21.44;61.68;99233.78;5076252;28;20043;-81
2023/10/03 05:18:46;;;;;;;18.50;7.93;;;;;;;21.48;61.86;99231.09;5090246;28;20036;-81
2023/10/03 05:21:13;;;;;;;21.40;8.68;;;;;;;21.60;61.69;99243.31;5074349;28;20383;-81
2023/10/03 05:23:41;;;;;;;20.42;8.18;;;;;;;21.49;61.99;99241.03;5073928;28;20044;-80
2023/10/03 05:26:07;;;;;;;20.83;8.43;;;;;;;21.43;62.30;99232.16;5074504;28;20032;-80
2023/10/03 05:28:34;;;;;;;19.27;9.13;;;;;;;21.48;62.36;99233.88;5076717;28;20032;-81
2023/10/03 05:30:59;;;;;;;22.58;8.02;;;;;;;21.33;62.60;99236.25;5073701;28;20027;-81
2023/10/03 05:33:25;;;;;;;22.85;8.88;;;;;;;21.29;62.73;99237.28;5073990;28;20112;-81
2023/10/03 05:35:50;;;;;;;18.08;8.05;;;;;;;21.34;62.85;99240.63;5074279;28;20074;-80
2023/10/03 05:38:15;;;;;;;17.63;8.00;;;;;;;21.39;62.52;99239.56;5074084;28;20176;-81
2023/10/03 05:40:43;;;;;;;20.67;9.57;;;;;;;21.23;63.33;99245.03;5072969;28;20029;-80
2023/10/03 05:43:08;;;;;;;23.95;8.77;;;;;;;21.15;63.71;99241.25;5073099;28;20775;-80
2023/10/03 05:45:35;;;;;;;24.10;9.40;;;;;;;21.18;63.89;99246.09;5073218;28;20190;-80
2023/10/03 05:48:00;;;;;;;20.88;9.35;;;;;;;21.26;63.72;99249.88;5072130;28;20049;-79
2023/10/03 05:50:25;;;;;;;18.87;9.73;;;;;;;21.17;64.16;99252.00;5073993;28;20039;-80
2023/10/03 05:52:50;;;;;;;21.90;9.38;;;;;;;21.21;64.16;99253.69;5073771;28;20028;-81
2023/10/03 05:55:16;;;;;;;24.95;9.88;;;;;;;21.24;64.17;99252.19;5074767;28;20020;-80
2023/10/03 05:57:42;;;;;;;19.60;8.15;;;;;;;21.34;63.88;99262.78;5073769;28;20050;-80
2023/10/03 06:00:09;;;;;;;23.77;9.60;;;;;;;21.20;64.51;99246.53;5073390;28;20028;-80
2023/10/03 06:02:36;;;;;;;22.42;9.20;;;;;;;21.18;65.00;99259.13;5072677;28;20033;-79
2023/10/03 06:05:01;;;;;;;17.05;9.68;;;;;;;21.15;64.81;99259.84;5071752;28;20063;-80
2023/10/03 06:07:27;;;;;;;17.67;8.90;;;;;;;21.23;65.06;99268.00;5073709;28;20029;-81
2023/10/03 06:09:55;;;;;;;20.37;9.40;;;;;;;21.14;65.38;99267.34;5073450;28;20743;-80
2023/10/03 06:12:21;;;;;;;19.05;10.98;;;;;;;21.23;65.48;99261.69;5073062;28;20027;-80
2023/10/03 06:14:46;;;;;;;19.63;11.68;;;;;;;21.13;65.59;99273.25;5075587;28;20060;-81
2023/10/03 06:17:13;;;;;;;20.97;12.33;;;;;;;21.17;65.96;99279.69;5072528;28;20067;-81
2023/10/03 06:19:38;;;;;;;19.67;17.35;;;;;;;21.10;66.18;99296.91;5071690;28;20261;-80
2023/10/03 06:22:05;;;;;;;67.30;62.95;;;;;;;21.07;66.33;99276.22;5069232;28;20039;-78
2023/10/03 06:24:31;;;;;;;103.55;97.10;;;;;;;21.07;66.33;99276.22;5069032;28;20040;-81
2023/10/03 06:26:56;;;;;;;163.07;153.52;;;;;;;20.98;67.14;99289.41;5068579;28;20524;-80
2023/10/03 06:29:23;;;;;;;28.20;9.77;;;;;;;21.09;66.53;99304.41;5072520;28;20096;-80
2023/10/03 06:31:48;;;;;;;23.50;9.82;;;;;;;21.08;67.03;99296.44;5071712;28;20032;-80
2023/10/03 06:34:16;;;;;;;24.80;8.63;;;;;;;21.22;66.73;99298.84;5070309;28;20062;-81
2023/10/03 06:36:41;;;;;;;17.27;7.35;;;;;;;21.18;67.16;99309.00;5070099;28;20029;-81
2023/10/03 06:39:09;;;;;;;18.77;7.93;;;;;;;21.08;67.55;99327.72;5069279;28;20048;-81
2023/10/03 06:41:34;;;;;;;17.83;7.90;;;;;;;21.10;67.64;99319.06;5070300;28;20043;-80
2023/10/03 06:44:01;;;;;;;23.85;7.70;;;;;;;21.06;67.82;99327.28;5068861;28;20048;-81
2023/10/03 06:46:26;;;;;;;15.90;8.00;;;;;;;20.96;68.40;99311.91;5065646;28;20135;-80
2023/10/03 06:48:52;;;;;;;16.92;7.95;;;;;;;21.06;68.25;99313.41;5064542;28;20123;-79
2023/10/03 06:51:17;;;;;;;20.63;7.78;;;;;;;20.93;68.28;99314.56;5063490;28;20406;-80
2023/10/03 06:53:46;;;;;;;17.55;7.25;;;;;;;21.00;68.61;99317.56;5062356;28;20127;-80
2023/10/03 06:56:12;;;;;;;21.35;7.22;;;;;;;20.95;68.68;99318.56;5061809;28;20389;-79
2023/10/03 06:58:37;;;;;;;22.15;8.40;;;;;;;21.01;68.59;99316.44;5062165;28;20036;-79
2023/10/03 07:01:03;;;;;;;17.10;7.33;;;;;;;20.95;68.31;99320.56;5061605;28;20056;-80
2023/10/03 07:03:29;;;;;;;14.43;7.27;;;;;;;20.95;68.60;99339.94;5060832;28;20265;-80
2023/10/03 07:05:55;;;;;;;21.67;6.70;;;;;;;20.93;68.75;99364.41;5063120;28;20261;-80
2023/10/03 07:08:20;;;;;;;16.17;7.07;;;;;;;20.81;68.95;99351.38;5062929;28;20059;-84
2023/10/03 07:10:46;;;;;;;14.30;6.75;;;;;;;20.94;68.60;99360.47;5062717;28;20052;-80
2023/10/03 07:13:12;;;;;;;16.38;6.60;;;;;;;20.96;68.70;99347.09;5062915;28;20659;-78
2023/10/03 07:15:39;;;;;;;15.88;6.82;;;;;;;20.87;68.89;99372.13;5063311;28;20041;-78
2023/10/03 07:18:04;;;;;;;19.40;10.02;;;;;;;20.57;69.92;99370.34;5063375;28;20071;-77
2023/10/03 07:20:30;;;;;;;13.27;6.55;;;;;;;20.83;69.03;99366.47;5062710;28;20086;-81
2023/10/03 07:22:55;;;;;;;20.13;7.33;;;;;;;20.90;69.18;99367.88;5062449;28;20989;-78
2023/10/03 07:25:20;;;;;;;16.87;8.50;;;;;;;20.72;69.77;99376.38;5062449;28;20278;-78
2023/10/03 07:27:48;;;;;;;21.00;19.05;;;;;;;20.61;70.18;99381.53;5062894;28;20279;-78
2023/10/03 07:30:15;;;;;;;12.68;5.95;;;;;;;20.84;69.49;99372.81;5063095;28;20469;-78
2023/10/03 07:32:40;;;;;;;13.27;7.03;;;;;;;20.57;70.24;99375.91;5062452;28;20035;-79
2023/10/03 07:35:10;;;;;;;16.52;7.57;;;;;;;20.41;70.88;99392.34;5061560;28;20278;-79
2023/10/03 07:37:36;;;;;;;15.45;9.60;;;;;;;20.53;70.42;99397.09;5062088;28;20501;-79
2023/10/03 07:40:02;;;;;;;18.60;11.90;;;;;;;20.38;70.66;99396.59;5061724;28;20131;-78
2023/10/03 07:42:30;;;;;;;11.77;5.20;;;;;;;20.72;69.68;99387.47;5062334;28;20111;-78
2023/10/03 07:44:56;;;;;;;13.30;6.30;;;;;;;20.41;69.60;99390.38;5062789;28;20045;-78
2023/10/03 07:47:21;;;;;;;10.65;5.82;;;;;;;20.57;69.17;99391.69;5062877;28;20064;-79
2023/10/03 07:49:48;;;;;;;14.07;6.40;;;;;;;20.42;69.61;99388.44;5062585;28;20079;-76
2023/10/03 07:52:17;;;;;;;13.45;5.68;;;;;;;20.51;69.22;99366.19;5061950;28;20106;-77
2023/10/03 07:54:44;;;;;;;13.32;6.20;;;;;;;20.50;69.08;99370.13;5061799;28;20139;-76
2023/10/03 07:57:09;;;;;;;29.88;6.68;;;;;;;20.73;68.64;99419.53;5062626;28;20509;-76
2023/10/03 07:59:35;;;;;;;13.13;4.23;;;;;;;20.72;68.82;99409.63;5061350;28;20047;-76
2023/10/03 08:02:05;;;;;;;16.35;6.00;;;;;;;20.58;69.61;99407.16;5062360;28;20616;-76
2023/10/03 08:04:31;;;;;;;9.55;5.45;;;;;;;20.70;69.49;99423.00;5062527;28;20062;-76
2023/10/03 08:06:57;;;;;;;12.35;5.28;;;;;;;20.75;69.15;99408.94;5062268;28;20043;-76
2023/10/03 08:09:24;;;;;;;9.85;4.80;;;;;;;20.92;68.70;99396.03;5062138;28;20044;-76
2023/10/03 08:11:52;;;;;;;10.85;5.97;;;;;;;20.86;69.23;99407.34;5062817;28;20025;-76
2023/10/03 08:14:18;;;;;;;16.17;6.65;;;;;;;20.42;70.56;99396.75;5061864;28;20119;-76
2023/10/03 08:16:45;;;;;;;11.73;4.85;;;;;;;20.53;70.37;99410.94;5062165;28;20121;-76
2023/10/03 08:19:21;;;;;;;15.10;5.97;;;;;;;20.60;70.24;99405.69;5062276;28;20074;-77
2023/10/03 08:21:52;;;;;;;15.73;6.20;;;;;;;20.44;70.21;99421.31;5062399;28;20040;-75
2023/10/03 08:24:24;;;;;;;14.27;5.90;;;;;;;20.48;70.44;99434.09;5061599;28;20490;-76
2023/10/03 08:26:51;;;;;;;9.40;6.80;;;;;;;20.32;71.20;99447.78;5061881;28;20032;-76
2023/10/03 08:29:23;;;;;;;12.60;6.20;;;;;;;20.51;70.17;99455.59;5062123;28;20041;-76
2023/10/03 08:31:59;;;;;;;12.32;5.80;;;;;;;20.29;70.52;99452.03;5062294;28;20097;-78
2023/10/03 08:34:25;;;;;;;11.27;5.18;;;;;;;20.31;70.58;99462.78;5062775;28;20071;-77
2023/10/03 08:36:54;;;;;;;14.00;6.90;;;;;;;20.50;69.76;99442.09;5062443;28;20066;-77
2023/10/03 08:39:23;;;;;;;17.02;6.03;;;;;;;20.55;69.94;99449.34;5065762;28;20460;-76
2023/10/03 08:42:12;;;;;;;13.73;11.63;;;;;;;20.65;69.50;99457.25;5065805;28;20620;-77
2023/10/03 08:44:52;;;;;;;11.88;4.70;;;;;;;20.67;69.74;99452.19;5065595;28;20096;-76
2023/10/03 08:47:28;;;;;;;9.73;4.30;;;;;;;20.73;69.42;99458.31;5065859;28;20055;-75
2023/10/03 08:50:01;;;;;;;12.00;5.10;;;;;;;20.54;69.67;99465.19;5065613;28;20055;-76
2023/10/03 08:52:39;;;;;;;11.80;4.38;;;;;;;20.63;69.48;99452.06;5065371;28;20489;-78
2023/10/03 08:55:08;;;;;;;11.40;5.03;;;;;;;20.51;69.60;99476.94;5065866;28;20043;-76
2023/10/03 08:57:35;;;;;;;14.13;6.25;;;;;;;20.64;69.36;99484.13;5065043;28;20518;-77
2023/10/03 09:00:10;;;;;;;11.00;4.57;;;;;;;20.33;70.20;99496.47;5065368;28;20033;-77
2023/10/03 09:02:45;;;;;;;59.47;55.50;;;;;;;20.02;71.18;99483.78;5065396;28;20032;-77
2023/10/03 09:05:20;;;;;;;9.40;6.10;;;;;;;20.34;70.55;99495.28;5066082;28;20497;-77
2023/10/03 09:07:47;;;;;;;26.42;24.02;;;;;;;20.11;71.05;99478.22;5066210;28;20505;-77
2023/10/03 09:10:22;;;;;;;13.98;4.60;;;;;;;20.28;70.94;99477.28;5064822;28;20049;-78
2023/10/03 09:12:52;;;;;;;9.05;6.75;;;;;;;20.45;70.70;99475.50;5064921;28;20128;-77
2023/10/03 09:15:19;;;;;;;13.77;5.63;;;;;;;20.41;70.90;99467.06;5065581;28;20067;-78
2023/10/03 09:17:49;;;;;;;9.38;6.15;;;;;;;20.27;70.99;99478.44;5065597;28;20054;-78
2023/10/03 09:20:21;;;;;;;11.15;8.68;;;;;;;20.32;70.79;99469.91;5064793;28;20052;-76
2023/10/03 09:22:47;;;;;;;9.30;5.68;;;;;;;20.48;70.16;99480.38;5064318;28;20036;-77
2023/10/03 09:25:15;;;;;;;9.80;7.07;;;;;;;20.38;70.52;99451.94;5064230;28;20554;-78
2023/10/03 09:27:41;;;;;;;15.10;11.98;;;;;;;20.34;70.18;99475.91;5065432;28;20340;-77
2023/10/03 09:30:10;;;;;;;13.30;12.05;;;;;;;20.52;70.16;99473.81;5065020;28;20071;-78
2023/10/03 09:32:39;;;;;;;12.25;7.85;;;;;;;20.67;69.71;99477.09;5064724;28;20110;-77
2023/10/03 09:35:09;;;;;;;13.40;10.15;;;;;;;20.65;69.89;99471.91;5064723;28;20135;-77
2023/10/03 09:37:35;;;;;;;10.35;8.63;;;;;;;20.61;69.80;99481.22;5065226;28;20029;-77
2023/10/03 09:40:01;;;;;;;9.63;6.45;;;;;;;20.81;69.31;99484.31;5064608;28;20051;-77
2023/10/03 09:42:30;;;;;;;11.45;6.63;;;;;;;20.88;69.11;99490.91;5063865;28;20086;-76
2023/10/03 09:44:58;;;;;;;8.30;5.28;;;;;;;20.86;69.01;99487.69;5063194;28;20163;-77
2023/10/03 09:47:31;;;;;;;8.40;4.20;;;;;;;21.03;68.82;99498.94;5064534;28;20147;-77
2023/10/03 09:50:07;;;;;;;11.52;5.20;;;;;;;20.90;69.12;99498.06;5064376;28;20050;-77
2023/10/03 09:52:36;;;;;;;13.13;6.07;;;;;;;20.94;69.27;99501.78;5063198;28;20406;-77
2023/10/03 09:55:17;;;;;;;10.88;4.93;;;;;;;21.06;69.13;99506.56;5064259;28;20040;-77
2023/10/03 09:57:44;;;;;;;14.90;8.05;;;;;;;20.93;69.65;99497.41;5064004;28;20106;-77
2023/10/03 10:00:23;;;;;;;8.95;5.55;;;;;;;21.03;69.13;99499.72;5064606;28;20040;-77
2023/10/03 10:02:54;;;;;;;12.02;6.93;;;;;;;20.95;69.18;99500.63;5064405;28;20449;-77
2023/10/03 10:05:22;;;;;;;12.52;5.22;;;;;;;20.95;69.26;99500.63;5064865;28;20364;-78
2023/10/03 10:08:12;;;;;;;10.88;5.28;;;;;;;21.01;69.28;99507.63;5065007;28;20035;-78
2023/10/03 10:10:38;;;;;;;9.35;6.07;;;;;;;;;;5064124;28;20048;-74
2023/10/03 10:13:20;;;;;;;17.23;15.85;;;;;;;20.85;69.03;99491.59;5064504;28;20055;-74
2023/10/03 10:16:01;;;;;;;8.27;5.18;;;;;;;21.16;68.60;99497.00;5064616;28;20401;-75
2023/10/03 10:18:45;;;;;;;10.10;6.15;;;;;;;21.04;68.40;99501.38;5063771;28;20494;-74
2023/10/03 10:21:36;;;;;;;9.23;4.00;;;;;;;21.01;68.70;99504.03;5063912;28;20052;-74
2023/10/03 10:24:20;;;;;;;10.57;4.07;;;;;;;21.06;68.61;99512.91;5063337;28;20040;-75
2023/10/03 10:26:52;;;;;;;8.90;5.13;;;;;;;20.92;69.16;99501.31;5063512;28;20063;-74
2023/10/03 10:29:28;;;;;;;10.15;5.57;;;;;;;20.70;69.71;99495.00;5065091;28;20059;-74
2023/10/03 10:31:57;;;;;;;10.57;5.30;;;;;;;20.61;70.35;99492.31;5064005;28;20052;-76
2023/10/03 10:34:27;;;;;;;140.77;131.68;;;;;;;20.38;71.31;99476.88;5063750;28;20051;-74
2023/10/03 10:37:15;;;;;;;34.47;32.08;;;;;;;20.61;71.69;99492.31;5062786;28;20044;-74
2023/10/03 10:39:56;;;;;;;13.77;12.75;;;;;;;20.17;73.17;99501.78;5065468;28;20556;-78
2023/10/03 10:42:25;;;;;;;21.17;19.77;;;;;;;20.41;73.63;99528.78;5062659;28;20039;-76
2023/10/03 10:45:03;;;;;;;207.55;197.02;;;;;;;20.24;78.23;99540.78;5061202;28;20490;-83
2023/10/03 10:47:31;;;;;;;1415.40;768.33;;;;;;;19.47;81.98;99548.81;5062663;28;20040;-79
2023/10/03 10:49:57;;;;;;;911.22;815.88;;;;;;;19.44;83.02;99549.47;5063886;28;20033;-79
2023/10/03 10:52:23;;;;;;;311.20;297.00;;;;;;;19.30;82.96;99563.47;5063906;28;20048;-78
2023/10/03 10:54:49;;;;;;;48.63;46.15;;;;;;;19.01;83.48;99565.81;5062932;28;20580;-78
2023/10/03 10:57:17;;;;;;;52.33;49.45;;;;;;;18.92;84.28;99566.94;5062633;28;20518;-76
2023/10/03 10:59:43;;;;;;;33.90;31.48;;;;;;;19.14;82.93;99565.94;5061961;28;20067;-76
2023/10/03 11:02:26;;;;;;;33.05;31.08;;;;;;;18.95;84.38;99578.16;5063238;28;20040;-78
2023/10/03 11:04:55;;;;;;;45.42;42.65;;;;;;;18.80;84.54;99593.25;5063164;28;20032;-79
2023/10/03 11:07:22;;;;;;;114.35;108.13;;;;;;;18.53;85.95;99596.00;5062463;28;20124;-78
2023/10/03 11:09:48;;;;;;;25.90;23.95;;;;;;;18.38;86.18;99613.03;5061839;28;20036;-79
2023/10/03 11:12:25;;;;;;;15.23;9.48;;;;;;;19.04;84.98;99602.19;5061382;28;20397;-80
2023/10/03 11:14:52;;;;;;;17.13;13.30;;;;;;;18.92;85.03;99611.94;5068375;28;20584;-84
2023/10/03 11:17:17;;;;;;;21.92;15.40;;;;;;;19.29;83.69;99602.50;5068337;28;20036;-78
2023/10/03 11:19:43;;;;;;;34.00;24.90;;;;;;;19.22;83.70;99603.03;5063305;28;20058;-79
2023/10/03 11:22:12;;;;;;;70.00;65.90;;;;;;;18.96;84.12;99599.09;5060572;28;20101;-81
2023/10/03 11:24:39;;;;;;;17.27;10.60;;;;;;;18.85;85.01;99603.34;5063013;28;20060;-79
2023/10/03 11:27:05;;;;;;;15.73;11.07;;;;;;;18.94;85.45;99601.38;5062523;28;20094;-79
2023/10/03 11:29:34;;;;;;;27.58;11.77;;;;;;;18.87;85.43;99609.34;5064145;28;20029;-79
2023/10/03 11:32:01;;;;;;;14.52;9.73;;;;;;;18.81;85.86;99605.13;5060976;28;20110;-79
2023/10/03 11:34:39;;;;;;;17.65;15.75;;;;;;;19.04;84.99;99613.25;5077906;28;20047;-80
2023/10/03 11:37:05;;;;;;;13.40;9.93;;;;;;;19.11;84.79;99613.56;5060433;28;20564;-78
2023/10/03 11:39:39;;;;;;;49.60;46.47;;;;;;;19.16;84.22;99588.53;5061424;28;20036;-79